sensor_id;sensor_type;location;lat;lon;timestamp;P1;durP1;ratioP1;P2;durP2;ratioP2
7729;SDS011;3908;52.310;7.230;2023-03-03T00:02:36;53.80;;;22.87;;
7729;SDS011;3908;52.310;7.230;2023-03-03T00:05:25;45.50;;;19.90;;
7729;SDS011;3908;52.310;7.230;2023-03-03T00:08:12;48.10;;;20.13;;
7729;SDS011;3908;52.310;7.230;2023-03-03T00:10:59;49.50;;;21.30;;
7729;SDS011;3908;52.310;7.230;2023-03-03T00:13:48;56.80;;;22.30;;
7729;SDS011;3908;52.310;7.230;2023-03-03T00:16:36;52.43;;;21.20;;
7729;SDS011;3908;52.310;7.230;2023-03-03T00:19:25;46.87;;;20.33;;
7729;SDS011;3908;52.310;7.230;2023-03-03T00:22:15;46.17;;;21.23;;
7729;SDS011;3908;52.310;7.230;2023-03-03T00:25:20;42.67;;;19.40;;
7729;SDS011;3908;52.310;7.230;2023-03-03T00:28:19;46.67;;;22.30;;
7729;SDS011;3908;52.310;7.230;2023-03-03T00:31:11;54.43;;;21.10;;
7729;SDS011;3908;52.310;7.230;2023-03-03T00:34:10;45.47;;;20.60;;
7729;SDS011;3908;52.310;7.230;2023-03-03T00:37:10;39.67;;;18.17;;
7729;SDS011;3908;52.310;7.230;2023-03-03T00:40:20;53.30;;;19.97;;
7729;SDS011;3908;52.310;7.230;2023-03-03T00:43:14;51.60;;;21.10;;
7729;SDS011;3908;52.310;7.230;2023-03-03T00:46:07;48.10;;;20.33;;
7729;SDS011;3908;52.310;7.230;2023-03-03T00:48:55;46.73;;;18.33;;
7729;SDS011;3908;52.310;7.230;2023-03-03T00:51:42;47.37;;;19.40;;
7729;SDS011;3908;52.310;7.230;2023-03-03T00:54:31;45.67;;;19.67;;
7729;SDS011;3908;52.310;7.230;2023-03-03T00:57:18;46.40;;;19.33;;
7729;SDS011;3908;52.310;7.230;2023-03-03T01:00:05;50.93;;;20.63;;
7729;SDS011;3908;52.310;7.230;2023-03-03T01:02:53;48.27;;;19.73;;
7729;SDS011;3908;52.310;7.230;2023-03-03T01:05:40;51.53;;;19.70;;
7729;SDS011;3908;52.310;7.230;2023-03-03T01:08:27;45.10;;;19.03;;
7729;SDS011;3908;52.310;7.230;2023-03-03T01:11:16;59.20;;;21.20;;
7729;SDS011;3908;52.310;7.230;2023-03-03T01:14:07;53.90;;;20.90;;
7729;SDS011;3908;52.310;7.230;2023-03-03T01:16:54;52.23;;;20.97;;
7729;SDS011;3908;52.310;7.230;2023-03-03T01:19:41;50.43;;;20.77;;
7729;SDS011;3908;52.310;7.230;2023-03-03T01:22:28;52.77;;;20.23;;
7729;SDS011;3908;52.310;7.230;2023-03-03T01:25:15;49.07;;;19.00;;
7729;SDS011;3908;52.310;7.230;2023-03-03T01:28:03;51.53;;;20.93;;
7729;SDS011;3908;52.310;7.230;2023-03-03T01:30:51;50.20;;;19.87;;
7729;SDS011;3908;52.310;7.230;2023-03-03T01:33:38;52.13;;;20.57;;
7729;SDS011;3908;52.310;7.230;2023-03-03T01:36:25;49.90;;;19.30;;
7729;SDS011;3908;52.310;7.230;2023-03-03T01:39:14;55.53;;;20.57;;
7729;SDS011;3908;52.310;7.230;2023-03-03T01:42:02;42.87;;;19.37;;
7729;SDS011;3908;52.310;7.230;2023-03-03T01:48:05;54.23;;;21.70;;
7729;SDS011;3908;52.310;7.230;2023-03-03T01:50:56;46.90;;;19.10;;
7729;SDS011;3908;52.310;7.230;2023-03-03T01:53:48;51.03;;;20.00;;
7729;SDS011;3908;52.310;7.230;2023-03-03T01:56:38;50.47;;;21.07;;
7729;SDS011;3908;52.310;7.230;2023-03-03T01:59:27;57.47;;;20.93;;
7729;SDS011;3908;52.310;7.230;2023-03-03T02:02:21;51.53;;;20.70;;
7729;SDS011;3908;52.310;7.230;2023-03-03T02:05:09;57.80;;;19.50;;
7729;SDS011;3908;52.310;7.230;2023-03-03T02:07:57;45.77;;;19.80;;
7729;SDS011;3908;52.310;7.230;2023-03-03T02:10:44;65.60;;;21.97;;
7729;SDS011;3908;52.310;7.230;2023-03-03T02:13:32;50.67;;;21.80;;
7729;SDS011;3908;52.310;7.230;2023-03-03T02:16:19;45.17;;;19.70;;
7729;SDS011;3908;52.310;7.230;2023-03-03T02:19:09;53.00;;;20.67;;
7729;SDS011;3908;52.310;7.230;2023-03-03T02:22:02;52.13;;;20.33;;
7729;SDS011;3908;52.310;7.230;2023-03-03T02:24:50;49.07;;;19.40;;
7729;SDS011;3908;52.310;7.230;2023-03-03T02:27:41;58.63;;;21.20;;
7729;SDS011;3908;52.310;7.230;2023-03-03T02:30:28;51.53;;;20.17;;
7729;SDS011;3908;52.310;7.230;2023-03-03T02:33:15;48.07;;;20.73;;
7729;SDS011;3908;52.310;7.230;2023-03-03T02:36:02;47.03;;;19.77;;
7729;SDS011;3908;52.310;7.230;2023-03-03T02:38:50;55.73;;;19.07;;
7729;SDS011;3908;52.310;7.230;2023-03-03T02:41:45;56.47;;;20.90;;
7729;SDS011;3908;52.310;7.230;2023-03-03T02:44:39;47.73;;;19.57;;
7729;SDS011;3908;52.310;7.230;2023-03-03T02:47:26;45.13;;;19.77;;
7729;SDS011;3908;52.310;7.230;2023-03-03T02:50:13;41.90;;;19.23;;
7729;SDS011;3908;52.310;7.230;2023-03-03T02:53:00;49.73;;;20.30;;
7729;SDS011;3908;52.310;7.230;2023-03-03T02:55:47;44.27;;;19.30;;
7729;SDS011;3908;52.310;7.230;2023-03-03T02:58:34;48.07;;;18.83;;
7729;SDS011;3908;52.310;7.230;2023-03-03T03:01:22;46.47;;;18.40;;
7729;SDS011;3908;52.310;7.230;2023-03-03T03:04:10;44.13;;;16.97;;
7729;SDS011;3908;52.310;7.230;2023-03-03T03:06:58;48.10;;;18.67;;
7729;SDS011;3908;52.310;7.230;2023-03-03T03:09:45;42.77;;;18.27;;
7729;SDS011;3908;52.310;7.230;2023-03-03T03:12:34;49.63;;;18.17;;
7729;SDS011;3908;52.310;7.230;2023-03-03T03:15:21;49.67;;;18.60;;
7729;SDS011;3908;52.310;7.230;2023-03-03T03:18:09;46.73;;;18.00;;
7729;SDS011;3908;52.310;7.230;2023-03-03T03:20:56;43.77;;;17.70;;
7729;SDS011;3908;52.310;7.230;2023-03-03T03:23:43;40.87;;;17.43;;
7729;SDS011;3908;52.310;7.230;2023-03-03T03:26:30;45.60;;;17.83;;
7729;SDS011;3908;52.310;7.230;2023-03-03T03:29:17;50.57;;;18.90;;
7729;SDS011;3908;52.310;7.230;2023-03-03T03:32:04;53.10;;;17.73;;
7729;SDS011;3908;52.310;7.230;2023-03-03T03:34:53;47.60;;;17.73;;
7729;SDS011;3908;52.310;7.230;2023-03-03T03:37:40;39.20;;;16.17;;
7729;SDS011;3908;52.310;7.230;2023-03-03T03:40:27;47.17;;;18.83;;
7729;SDS011;3908;52.310;7.230;2023-03-03T03:43:14;40.40;;;16.77;;
7729;SDS011;3908;52.310;7.230;2023-03-03T03:46:01;41.83;;;16.77;;
7729;SDS011;3908;52.310;7.230;2023-03-03T03:48:48;45.63;;;17.57;;
7729;SDS011;3908;52.310;7.230;2023-03-03T03:51:36;47.73;;;17.67;;
7729;SDS011;3908;52.310;7.230;2023-03-03T03:54:25;40.40;;;17.43;;
7729;SDS011;3908;52.310;7.230;2023-03-03T03:57:12;44.50;;;18.73;;
7729;SDS011;3908;52.310;7.230;2023-03-03T03:59:59;48.67;;;18.13;;
7729;SDS011;3908;52.310;7.230;2023-03-03T04:02:53;40.97;;;17.60;;
7729;SDS011;3908;52.310;7.230;2023-03-03T04:05:40;46.77;;;18.33;;
7729;SDS011;3908;52.310;7.230;2023-03-03T04:08:29;47.10;;;18.80;;
7729;SDS011;3908;52.310;7.230;2023-03-03T04:11:16;46.37;;;18.97;;
7729;SDS011;3908;52.310;7.230;2023-03-03T04:14:03;51.40;;;18.40;;
7729;SDS011;3908;52.310;7.230;2023-03-03T04:16:50;46.20;;;17.83;;
7729;SDS011;3908;52.310;7.230;2023-03-03T04:19:37;50.57;;;19.37;;
7729;SDS011;3908;52.310;7.230;2023-03-03T04:22:24;51.43;;;20.03;;
7729;SDS011;3908;52.310;7.230;2023-03-03T04:25:13;48.97;;;20.07;;
7729;SDS011;3908;52.310;7.230;2023-03-03T04:28:02;44.90;;;19.40;;
7729;SDS011;3908;52.310;7.230;2023-03-03T04:30:49;46.37;;;18.47;;
7729;SDS011;3908;52.310;7.230;2023-03-03T04:33:36;44.03;;;17.93;;
7729;SDS011;3908;52.310;7.230;2023-03-03T04:36:23;46.07;;;18.83;;
7729;SDS011;3908;52.310;7.230;2023-03-03T04:39:10;42.50;;;17.90;;
7729;SDS011;3908;52.310;7.230;2023-03-03T04:41:59;45.00;;;17.57;;
7729;SDS011;3908;52.310;7.230;2023-03-03T04:44:46;58.43;;;20.03;;
7729;SDS011;3908;52.310;7.230;2023-03-03T04:47:33;51.67;;;19.03;;
7729;SDS011;3908;52.310;7.230;2023-03-03T04:50:20;48.93;;;18.80;;
7729;SDS011;3908;52.310;7.230;2023-03-03T04:53:07;48.50;;;18.40;;
7729;SDS011;3908;52.310;7.230;2023-03-03T04:55:54;41.83;;;17.07;;
7729;SDS011;3908;52.310;7.230;2023-03-03T04:58:42;45.37;;;18.07;;
7729;SDS011;3908;52.310;7.230;2023-03-03T05:01:29;42.77;;;17.90;;
7729;SDS011;3908;52.310;7.230;2023-03-03T05:04:16;45.07;;;18.10;;
7729;SDS011;3908;52.310;7.230;2023-03-03T05:07:03;36.77;;;17.40;;
7729;SDS011;3908;52.310;7.230;2023-03-03T05:09:50;47.63;;;19.00;;
7729;SDS011;3908;52.310;7.230;2023-03-03T05:12:37;40.57;;;17.27;;
7729;SDS011;3908;52.310;7.230;2023-03-03T05:15:25;43.50;;;18.13;;
7729;SDS011;3908;52.310;7.230;2023-03-03T05:18:12;48.00;;;19.17;;
7729;SDS011;3908;52.310;7.230;2023-03-03T05:20:59;42.63;;;18.27;;
7729;SDS011;3908;52.310;7.230;2023-03-03T05:23:46;37.33;;;17.67;;
7729;SDS011;3908;52.310;7.230;2023-03-03T05:26:33;39.63;;;17.20;;
7729;SDS011;3908;52.310;7.230;2023-03-03T05:29:20;41.93;;;18.13;;
7729;SDS011;3908;52.310;7.230;2023-03-03T05:32:09;47.10;;;18.97;;
7729;SDS011;3908;52.310;7.230;2023-03-03T05:34:56;41.50;;;16.90;;
7729;SDS011;3908;52.310;7.230;2023-03-03T05:37:43;45.73;;;18.97;;
7729;SDS011;3908;52.310;7.230;2023-03-03T05:40:32;39.73;;;17.30;;
7729;SDS011;3908;52.310;7.230;2023-03-03T05:43:19;40.83;;;17.93;;
7729;SDS011;3908;52.310;7.230;2023-03-03T05:46:06;41.13;;;16.20;;
7729;SDS011;3908;52.310;7.230;2023-03-03T05:48:54;36.00;;;15.90;;
7729;SDS011;3908;52.310;7.230;2023-03-03T05:51:41;35.40;;;15.37;;
7729;SDS011;3908;52.310;7.230;2023-03-03T05:54:28;38.30;;;16.50;;
7729;SDS011;3908;52.310;7.230;2023-03-03T05:57:15;40.00;;;17.70;;
7729;SDS011;3908;52.310;7.230;2023-03-03T06:00:02;42.47;;;16.40;;
7729;SDS011;3908;52.310;7.230;2023-03-03T06:02:50;34.60;;;16.20;;
7729;SDS011;3908;52.310;7.230;2023-03-03T06:05:39;35.83;;;18.00;;
7729;SDS011;3908;52.310;7.230;2023-03-03T06:08:26;37.73;;;15.30;;
7729;SDS011;3908;52.310;7.230;2023-03-03T06:11:13;38.97;;;17.57;;
7729;SDS011;3908;52.310;7.230;2023-03-03T06:14:01;35.50;;;15.60;;
7729;SDS011;3908;52.310;7.230;2023-03-03T06:16:48;35.27;;;15.83;;
7729;SDS011;3908;52.310;7.230;2023-03-03T06:19:35;37.87;;;15.97;;
7729;SDS011;3908;52.310;7.230;2023-03-03T06:22:24;35.67;;;15.20;;
7729;SDS011;3908;52.310;7.230;2023-03-03T06:25:11;39.70;;;16.67;;
7729;SDS011;3908;52.310;7.230;2023-03-03T06:27:58;33.97;;;15.80;;
7729;SDS011;3908;52.310;7.230;2023-03-03T06:30:45;42.67;;;17.03;;
7729;SDS011;3908;52.310;7.230;2023-03-03T06:33:32;43.93;;;17.83;;
7729;SDS011;3908;52.310;7.230;2023-03-03T06:36:20;44.83;;;18.73;;
7729;SDS011;3908;52.310;7.230;2023-03-03T06:39:09;38.37;;;17.73;;
7729;SDS011;3908;52.310;7.230;2023-03-03T06:41:56;42.33;;;16.77;;
7729;SDS011;3908;52.310;7.230;2023-03-03T06:44:43;40.10;;;17.13;;
7729;SDS011;3908;52.310;7.230;2023-03-03T06:47:30;36.63;;;16.40;;
7729;SDS011;3908;52.310;7.230;2023-03-03T06:50:19;43.17;;;16.43;;
7729;SDS011;3908;52.310;7.230;2023-03-03T06:53:10;42.20;;;17.70;;
7729;SDS011;3908;52.310;7.230;2023-03-03T06:56:00;42.87;;;17.47;;
7729;SDS011;3908;52.310;7.230;2023-03-03T06:58:55;47.07;;;18.87;;
7729;SDS011;3908;52.310;7.230;2023-03-03T07:01:45;43.23;;;19.20;;
7729;SDS011;3908;52.310;7.230;2023-03-03T07:04:33;47.03;;;18.40;;
7729;SDS011;3908;52.310;7.230;2023-03-03T07:07:21;46.10;;;18.33;;
7729;SDS011;3908;52.310;7.230;2023-03-03T07:10:16;41.03;;;18.23;;
7729;SDS011;3908;52.310;7.230;2023-03-03T07:16:15;47.60;;;19.00;;
7729;SDS011;3908;52.310;7.230;2023-03-03T07:19:03;47.93;;;20.03;;
7729;SDS011;3908;52.310;7.230;2023-03-03T07:22:00;42.67;;;18.63;;
7729;SDS011;3908;52.310;7.230;2023-03-03T07:24:58;52.57;;;19.13;;
7729;SDS011;3908;52.310;7.230;2023-03-03T07:27:47;38.17;;;16.30;;
7729;SDS011;3908;52.310;7.230;2023-03-03T07:30:35;43.80;;;18.07;;
7729;SDS011;3908;52.310;7.230;2023-03-03T07:33:24;40.10;;;18.60;;
7729;SDS011;3908;52.310;7.230;2023-03-03T07:36:21;39.83;;;18.57;;
7729;SDS011;3908;52.310;7.230;2023-03-03T07:39:20;38.53;;;16.27;;
7729;SDS011;3908;52.310;7.230;2023-03-03T07:42:20;38.43;;;16.30;;
7729;SDS011;3908;52.310;7.230;2023-03-03T07:45:20;36.93;;;16.37;;
7729;SDS011;3908;52.310;7.230;2023-03-03T07:48:16;40.80;;;15.33;;
7729;SDS011;3908;52.310;7.230;2023-03-03T07:51:15;44.27;;;16.30;;
7729;SDS011;3908;52.310;7.230;2023-03-03T07:54:15;38.40;;;16.27;;
7729;SDS011;3908;52.310;7.230;2023-03-03T07:57:18;49.63;;;17.60;;
7729;SDS011;3908;52.310;7.230;2023-03-03T08:03:30;52.23;;;19.37;;
7729;SDS011;3908;52.310;7.230;2023-03-03T08:09:43;33.33;;;14.47;;
7729;SDS011;3908;52.310;7.230;2023-03-03T08:12:37;34.43;;;15.17;;
7729;SDS011;3908;52.310;7.230;2023-03-03T08:15:28;36.77;;;15.20;;
7729;SDS011;3908;52.310;7.230;2023-03-03T08:18:22;38.57;;;15.73;;
7729;SDS011;3908;52.310;7.230;2023-03-03T08:21:14;35.07;;;14.83;;
7729;SDS011;3908;52.310;7.230;2023-03-03T08:24:02;37.73;;;16.27;;
7729;SDS011;3908;52.310;7.230;2023-03-03T08:26:50;34.83;;;15.17;;
7729;SDS011;3908;52.310;7.230;2023-03-03T08:29:37;41.80;;;14.00;;
7729;SDS011;3908;52.310;7.230;2023-03-03T08:32:24;34.50;;;11.93;;
7729;SDS011;3908;52.310;7.230;2023-03-03T08:35:11;31.90;;;13.33;;
7729;SDS011;3908;52.310;7.230;2023-03-03T08:37:59;34.60;;;13.93;;
7729;SDS011;3908;52.310;7.230;2023-03-03T08:40:48;26.00;;;11.70;;
7729;SDS011;3908;52.310;7.230;2023-03-03T08:43:36;43.47;;;13.07;;
7729;SDS011;3908;52.310;7.230;2023-03-03T08:46:23;34.03;;;13.10;;
7729;SDS011;3908;52.310;7.230;2023-03-03T08:49:11;31.67;;;13.07;;
7729;SDS011;3908;52.310;7.230;2023-03-03T08:51:58;28.93;;;12.50;;
7729;SDS011;3908;52.310;7.230;2023-03-03T08:54:47;34.73;;;12.97;;
7729;SDS011;3908;52.310;7.230;2023-03-03T08:57:35;29.23;;;11.93;;
7729;SDS011;3908;52.310;7.230;2023-03-03T09:00:23;28.87;;;12.13;;
7729;SDS011;3908;52.310;7.230;2023-03-03T09:03:10;29.33;;;11.07;;
7729;SDS011;3908;52.310;7.230;2023-03-03T09:05:58;31.70;;;13.07;;
7729;SDS011;3908;52.310;7.230;2023-03-03T09:08:45;31.43;;;12.73;;
7729;SDS011;3908;52.310;7.230;2023-03-03T09:11:33;24.47;;;10.93;;
7729;SDS011;3908;52.310;7.230;2023-03-03T09:14:20;24.10;;;11.43;;
7729;SDS011;3908;52.310;7.230;2023-03-03T09:17:16;25.47;;;11.00;;
7729;SDS011;3908;52.310;7.230;2023-03-03T09:23:30;22.63;;;11.70;;
7729;SDS011;3908;52.310;7.230;2023-03-03T09:26:27;26.20;;;10.93;;
7729;SDS011;3908;52.310;7.230;2023-03-03T09:29:22;30.93;;;11.73;;
7729;SDS011;3908;52.310;7.230;2023-03-03T09:32:18;27.40;;;10.90;;
7729;SDS011;3908;52.310;7.230;2023-03-03T09:35:26;32.27;;;12.43;;
7729;SDS011;3908;52.310;7.230;2023-03-03T09:38:26;31.97;;;12.80;;
7729;SDS011;3908;52.310;7.230;2023-03-03T09:41:21;26.53;;;12.17;;
7729;SDS011;3908;52.310;7.230;2023-03-03T09:47:43;26.67;;;12.87;;
7729;SDS011;3908;52.310;7.230;2023-03-03T09:50:57;23.73;;;10.90;;
7729;SDS011;3908;52.310;7.230;2023-03-03T09:54:04;28.13;;;12.03;;
7729;SDS011;3908;52.310;7.230;2023-03-03T09:57:01;26.53;;;11.73;;
7729;SDS011;3908;52.310;7.230;2023-03-03T10:00:01;24.33;;;11.33;;
7729;SDS011;3908;52.310;7.230;2023-03-03T10:03:04;23.37;;;11.27;;
7729;SDS011;3908;52.310;7.230;2023-03-03T10:06:32;25.90;;;12.57;;
7729;SDS011;3908;52.310;7.230;2023-03-03T10:09:37;25.33;;;11.07;;
7729;SDS011;3908;52.310;7.230;2023-03-03T10:12:34;27.20;;;12.07;;
7729;SDS011;3908;52.310;7.230;2023-03-03T10:15:31;21.87;;;11.17;;
7729;SDS011;3908;52.310;7.230;2023-03-03T10:18:28;27.77;;;11.73;;
7729;SDS011;3908;52.310;7.230;2023-03-03T10:21:20;24.87;;;11.40;;
7729;SDS011;3908;52.310;7.230;2023-03-03T10:24:13;24.87;;;11.87;;
7729;SDS011;3908;52.310;7.230;2023-03-03T10:27:17;26.30;;;11.30;;
7729;SDS011;3908;52.310;7.230;2023-03-03T10:30:22;23.87;;;11.77;;
7729;SDS011;3908;52.310;7.230;2023-03-03T10:33:19;27.17;;;11.70;;
7729;SDS011;3908;52.310;7.230;2023-03-03T10:36:18;27.37;;;12.10;;
7729;SDS011;3908;52.310;7.230;2023-03-03T10:42:35;21.77;;;11.37;;
7729;SDS011;3908;52.310;7.230;2023-03-03T10:45:57;22.53;;;11.23;;
7729;SDS011;3908;52.310;7.230;2023-03-03T10:49:05;26.43;;;11.30;;
7729;SDS011;3908;52.310;7.230;2023-03-03T10:52:03;22.83;;;10.73;;
7729;SDS011;3908;52.310;7.230;2023-03-03T10:55:07;22.77;;;11.13;;
7729;SDS011;3908;52.310;7.230;2023-03-03T10:58:06;21.43;;;10.80;;
7729;SDS011;3908;52.310;7.230;2023-03-03T11:01:07;21.57;;;10.07;;
7729;SDS011;3908;52.310;7.230;2023-03-03T11:04:07;18.67;;;10.40;;
7729;SDS011;3908;52.310;7.230;2023-03-03T11:07:08;22.93;;;11.30;;
7729;SDS011;3908;52.310;7.230;2023-03-03T11:10:02;21.77;;;10.43;;
7729;SDS011;3908;52.310;7.230;2023-03-03T11:13:04;22.53;;;9.83;;
7729;SDS011;3908;52.310;7.230;2023-03-03T11:19:09;18.60;;;10.40;;
7729;SDS011;3908;52.310;7.230;2023-03-03T11:22:12;18.27;;;9.70;;
7729;SDS011;3908;52.310;7.230;2023-03-03T11:25:15;20.57;;;10.63;;
7729;SDS011;3908;52.310;7.230;2023-03-03T11:28:25;22.07;;;11.13;;
7729;SDS011;3908;52.310;7.230;2023-03-03T11:31:23;21.00;;;10.57;;
7729;SDS011;3908;52.310;7.230;2023-03-03T11:34:25;19.27;;;9.83;;
7729;SDS011;3908;52.310;7.230;2023-03-03T11:37:27;18.93;;;10.60;;
7729;SDS011;3908;52.310;7.230;2023-03-03T11:40:23;16.90;;;10.10;;
7729;SDS011;3908;52.310;7.230;2023-03-03T11:43:14;18.40;;;9.07;;
7729;SDS011;3908;52.310;7.230;2023-03-03T11:46:06;17.13;;;9.63;;
7729;SDS011;3908;52.310;7.230;2023-03-03T11:48:57;19.07;;;10.10;;
7729;SDS011;3908;52.310;7.230;2023-03-03T11:51:52;19.30;;;9.33;;
7729;SDS011;3908;52.310;7.230;2023-03-03T11:54:47;19.67;;;9.73;;
7729;SDS011;3908;52.310;7.230;2023-03-03T11:57:38;20.37;;;9.60;;
7729;SDS011;3908;52.310;7.230;2023-03-03T12:00:29;18.77;;;9.57;;
7729;SDS011;3908;52.310;7.230;2023-03-03T12:03:28;17.57;;;8.90;;
7729;SDS011;3908;52.310;7.230;2023-03-03T12:06:28;20.10;;;9.87;;
7729;SDS011;3908;52.310;7.230;2023-03-03T12:09:28;19.23;;;9.73;;
7729;SDS011;3908;52.310;7.230;2023-03-03T12:12:26;21.27;;;10.40;;
7729;SDS011;3908;52.310;7.230;2023-03-03T12:15:24;18.80;;;8.90;;
7729;SDS011;3908;52.310;7.230;2023-03-03T12:18:23;18.37;;;9.53;;
7729;SDS011;3908;52.310;7.230;2023-03-03T12:21:30;18.83;;;10.07;;
7729;SDS011;3908;52.310;7.230;2023-03-03T12:24:35;19.07;;;9.33;;
7729;SDS011;3908;52.310;7.230;2023-03-03T12:27:34;17.50;;;10.57;;
7729;SDS011;3908;52.310;7.230;2023-03-03T12:30:35;18.33;;;9.57;;
7729;SDS011;3908;52.310;7.230;2023-03-03T12:33:47;18.27;;;10.30;;
7729;SDS011;3908;52.310;7.230;2023-03-03T12:36:47;22.40;;;10.77;;
7729;SDS011;3908;52.310;7.230;2023-03-03T12:39:49;21.97;;;11.27;;
7729;SDS011;3908;52.310;7.230;2023-03-03T12:42:54;18.27;;;9.50;;
7729;SDS011;3908;52.310;7.230;2023-03-03T12:45:54;19.33;;;9.97;;
7729;SDS011;3908;52.310;7.230;2023-03-03T12:48:49;20.47;;;9.87;;
7729;SDS011;3908;52.310;7.230;2023-03-03T12:51:40;21.37;;;10.47;;
7729;SDS011;3908;52.310;7.230;2023-03-03T12:54:37;19.13;;;9.93;;
7729;SDS011;3908;52.310;7.230;2023-03-03T12:57:37;17.50;;;10.23;;
7729;SDS011;3908;52.310;7.230;2023-03-03T13:00:30;18.47;;;9.83;;
7729;SDS011;3908;52.310;7.230;2023-03-03T13:03:32;18.77;;;10.37;;
7729;SDS011;3908;52.310;7.230;2023-03-03T13:06:26;17.47;;;9.90;;
7729;SDS011;3908;52.310;7.230;2023-03-03T13:09:22;17.97;;;10.13;;
7729;SDS011;3908;52.310;7.230;2023-03-03T13:12:21;17.63;;;9.93;;
7729;SDS011;3908;52.310;7.230;2023-03-03T13:15:19;19.50;;;10.60;;
7729;SDS011;3908;52.310;7.230;2023-03-03T13:18:16;18.57;;;9.93;;
7729;SDS011;3908;52.310;7.230;2023-03-03T13:21:13;16.03;;;8.97;;
7729;SDS011;3908;52.310;7.230;2023-03-03T13:24:09;13.33;;;7.60;;
7729;SDS011;3908;52.310;7.230;2023-03-03T13:27:05;11.50;;;6.20;;
7729;SDS011;3908;52.310;7.230;2023-03-03T13:29:58;10.40;;;5.80;;
7729;SDS011;3908;52.310;7.230;2023-03-03T13:32:50;11.73;;;6.77;;
7729;SDS011;3908;52.310;7.230;2023-03-03T13:35:43;11.60;;;6.20;;
7729;SDS011;3908;52.310;7.230;2023-03-03T13:38:32;8.57;;;4.47;;
7729;SDS011;3908;52.310;7.230;2023-03-03T13:41:22;8.20;;;4.40;;
7729;SDS011;3908;52.310;7.230;2023-03-03T13:44:16;6.30;;;3.30;;
7729;SDS011;3908;52.310;7.230;2023-03-03T13:47:12;6.40;;;3.77;;
7729;SDS011;3908;52.310;7.230;2023-03-03T13:50:14;7.83;;;3.40;;
7729;SDS011;3908;52.310;7.230;2023-03-03T13:53:24;6.60;;;3.30;;
7729;SDS011;3908;52.310;7.230;2023-03-03T13:56:27;4.50;;;2.73;;
7729;SDS011;3908;52.310;7.230;2023-03-03T13:59:27;5.87;;;3.30;;
7729;SDS011;3908;52.310;7.230;2023-03-03T14:02:26;8.70;;;2.97;;
7729;SDS011;3908;52.310;7.230;2023-03-03T14:05:32;3.10;;;2.40;;
7729;SDS011;3908;52.310;7.230;2023-03-03T14:08:25;8.50;;;3.17;;
7729;SDS011;3908;52.310;7.230;2023-03-03T14:11:29;7.07;;;2.43;;
7729;SDS011;3908;52.310;7.230;2023-03-03T14:14:27;6.60;;;2.60;;
7729;SDS011;3908;52.310;7.230;2023-03-03T14:17:28;5.63;;;2.80;;
7729;SDS011;3908;52.310;7.230;2023-03-03T14:20:21;6.17;;;2.80;;
7729;SDS011;3908;52.310;7.230;2023-03-03T14:23:13;7.90;;;3.23;;
7729;SDS011;3908;52.310;7.230;2023-03-03T14:26:06;3.50;;;2.30;;
7729;SDS011;3908;52.310;7.230;2023-03-03T14:29:03;4.67;;;3.03;;
7729;SDS011;3908;52.310;7.230;2023-03-03T14:32:00;7.27;;;3.37;;
7729;SDS011;3908;52.310;7.230;2023-03-03T14:34:55;4.67;;;3.20;;
7729;SDS011;3908;52.310;7.230;2023-03-03T14:37:43;6.43;;;3.37;;
7729;SDS011;3908;52.310;7.230;2023-03-03T14:40:33;6.83;;;3.17;;
7729;SDS011;3908;52.310;7.230;2023-03-03T14:43:23;8.63;;;4.63;;
7729;SDS011;3908;52.310;7.230;2023-03-03T14:46:21;5.07;;;3.60;;
7729;SDS011;3908;52.310;7.230;2023-03-03T14:49:28;8.77;;;5.97;;
7729;SDS011;3908;52.310;7.230;2023-03-03T14:52:21;7.37;;;2.80;;
7729;SDS011;3908;52.310;7.230;2023-03-03T14:58:30;3.33;;;2.60;;
7729;SDS011;3908;52.310;7.230;2023-03-03T15:01:21;5.30;;;2.90;;
7729;SDS011;3908;52.310;7.230;2023-03-03T15:04:23;6.53;;;3.13;;
7729;SDS011;3908;52.310;7.230;2023-03-03T15:07:14;10.53;;;4.07;;
7729;SDS011;3908;52.310;7.230;2023-03-03T15:10:29;7.20;;;3.40;;
7729;SDS011;3908;52.310;7.230;2023-03-03T15:13:28;6.07;;;3.40;;
7729;SDS011;3908;52.310;7.230;2023-03-03T15:16:21;7.20;;;4.37;;
7729;SDS011;3908;52.310;7.230;2023-03-03T15:19:16;7.40;;;3.37;;
7729;SDS011;3908;52.310;7.230;2023-03-03T15:22:19;5.53;;;3.17;;
7729;SDS011;3908;52.310;7.230;2023-03-03T15:25:21;5.13;;;3.60;;
7729;SDS011;3908;52.310;7.230;2023-03-03T15:28:18;5.60;;;3.43;;
7729;SDS011;3908;52.310;7.230;2023-03-03T15:31:14;7.30;;;2.93;;
7729;SDS011;3908;52.310;7.230;2023-03-03T15:34:14;4.70;;;3.20;;
7729;SDS011;3908;52.310;7.230;2023-03-03T15:37:21;4.80;;;3.17;;
7729;SDS011;3908;52.310;7.230;2023-03-03T15:40:19;5.73;;;3.10;;
7729;SDS011;3908;52.310;7.230;2023-03-03T15:43:12;6.77;;;3.33;;
7729;SDS011;3908;52.310;7.230;2023-03-03T15:46:11;4.73;;;3.47;;
7729;SDS011;3908;52.310;7.230;2023-03-03T15:49:13;5.03;;;3.90;;
7729;SDS011;3908;52.310;7.230;2023-03-03T15:52:13;5.90;;;3.60;;
7729;SDS011;3908;52.310;7.230;2023-03-03T15:55:12;8.30;;;3.10;;
7729;SDS011;3908;52.310;7.230;2023-03-03T15:58:27;4.37;;;2.70;;
7729;SDS011;3908;52.310;7.230;2023-03-03T16:01:34;5.20;;;3.07;;
7729;SDS011;3908;52.310;7.230;2023-03-03T16:04:27;5.43;;;3.40;;
7729;SDS011;3908;52.310;7.230;2023-03-03T16:07:21;4.77;;;3.30;;
7729;SDS011;3908;52.310;7.230;2023-03-03T16:10:18;8.63;;;3.20;;
7729;SDS011;3908;52.310;7.230;2023-03-03T16:13:26;8.57;;;2.60;;
7729;SDS011;3908;52.310;7.230;2023-03-03T16:16:36;7.60;;;2.90;;
7729;SDS011;3908;52.310;7.230;2023-03-03T16:19:34;6.87;;;2.70;;
7729;SDS011;3908;52.310;7.230;2023-03-03T16:22:31;4.57;;;2.37;;
7729;SDS011;3908;52.310;7.230;2023-03-03T16:25:35;5.53;;;2.30;;
7729;SDS011;3908;52.310;7.230;2023-03-03T16:28:34;5.30;;;2.40;;
7729;SDS011;3908;52.310;7.230;2023-03-03T16:31:31;5.90;;;3.33;;
7729;SDS011;3908;52.310;7.230;2023-03-03T16:34:29;6.70;;;3.83;;
7729;SDS011;3908;52.310;7.230;2023-03-03T16:37:25;6.80;;;3.63;;
7729;SDS011;3908;52.310;7.230;2023-03-03T16:40:18;4.83;;;3.77;;
7729;SDS011;3908;52.310;7.230;2023-03-03T16:43:10;46.27;;;18.77;;
7729;SDS011;3908;52.310;7.230;2023-03-03T16:46:10;13.90;;;6.90;;
7729;SDS011;3908;52.310;7.230;2023-03-03T16:49:10;6.10;;;3.87;;
7729;SDS011;3908;52.310;7.230;2023-03-03T16:52:06;4.80;;;2.73;;
7729;SDS011;3908;52.310;7.230;2023-03-03T16:54:56;12.30;;;10.77;;
7729;SDS011;3908;52.310;7.230;2023-03-03T16:57:52;15.50;;;8.00;;
7729;SDS011;3908;52.310;7.230;2023-03-03T17:00:50;4.53;;;3.50;;
7729;SDS011;3908;52.310;7.230;2023-03-03T17:03:47;4.87;;;3.20;;
7729;SDS011;3908;52.310;7.230;2023-03-03T17:06:46;6.63;;;3.30;;
7729;SDS011;3908;52.310;7.230;2023-03-03T17:16:29;8.53;;;4.57;;
7729;SDS011;3908;52.310;7.230;2023-03-03T17:19:41;10.97;;;5.37;;
7729;SDS011;3908;52.310;7.230;2023-03-03T17:22:49;8.13;;;4.50;;
7729;SDS011;3908;52.310;7.230;2023-03-03T17:25:51;9.87;;;4.80;;
7729;SDS011;3908;52.310;7.230;2023-03-03T17:28:52;8.73;;;4.67;;
7729;SDS011;3908;52.310;7.230;2023-03-03T17:31:55;5.90;;;2.97;;
7729;SDS011;3908;52.310;7.230;2023-03-03T17:34:57;5.97;;;2.93;;
7729;SDS011;3908;52.310;7.230;2023-03-03T17:38:16;3.83;;;2.80;;
7729;SDS011;3908;52.310;7.230;2023-03-03T17:41:15;4.20;;;3.13;;
7729;SDS011;3908;52.310;7.230;2023-03-03T17:44:10;3.10;;;2.53;;
7729;SDS011;3908;52.310;7.230;2023-03-03T17:47:06;5.80;;;2.63;;
7729;SDS011;3908;52.310;7.230;2023-03-03T17:50:00;5.67;;;3.20;;
7729;SDS011;3908;52.310;7.230;2023-03-03T17:53:00;4.40;;;3.33;;
7729;SDS011;3908;52.310;7.230;2023-03-03T17:56:07;4.83;;;3.70;;
7729;SDS011;3908;52.310;7.230;2023-03-03T17:59:12;7.33;;;4.17;;
7729;SDS011;3908;52.310;7.230;2023-03-03T18:02:28;4.37;;;2.63;;
7729;SDS011;3908;52.310;7.230;2023-03-03T18:05:42;5.53;;;3.00;;
7729;SDS011;3908;52.310;7.230;2023-03-03T18:08:42;6.00;;;2.77;;
7729;SDS011;3908;52.310;7.230;2023-03-03T18:11:43;3.03;;;2.27;;
7729;SDS011;3908;52.310;7.230;2023-03-03T18:14:53;6.27;;;3.20;;